Terminal Aerodrome Forecast
Issued by NWS Mobile, AL

Home | Current Version | Previous Version | Text Only | Print | Product List | Glossary On
Versions: 1 2 3 4 5 6 7 8 9 10 11 12 13 14 15 16 17 18 19 20 21 22 23 24 25 26
000
FTUS44 KMOB 042320
TAFPNS
TAF
KPNS 042320Z 0500/0524 25010KT P6SM VCTS FEW035CB
      TEMPO 0500/0503 23020G30KT 2SM TSRA BKN035CB OVC070
     FM050300 19006KT P6SM VCTS SCT040CB BKN200
     FM050400 17005KT P6SM BKN250=

USA.gov is the U.S. government's official web portal to all federal, state and local government web resources and services.